sensor_id;sensor_type;location;lat;lon;timestamp;pressure;altitude;pressure_sealevel;temperature;humidity
33454;BME280;39400;49.744;7.012;2023-05-23T00:00:52;96009.91;;;14.91;100.00
33454;BME280;39400;49.744;7.012;2023-05-23T00:03:17;96006.88;;;14.82;100.00
33454;BME280;39400;49.744;7.012;2023-05-23T00:05:43;96009.72;;;14.79;100.00
33454;BME280;39400;49.744;7.012;2023-05-23T00:08:08;96006.22;;;14.74;100.00
33454;BME280;39400;49.744;7.012;2023-05-23T00:10:33;96011.41;;;14.72;100.00
33454;BME280;39400;49.744;7.012;2023-05-23T00:12:59;96012.69;;;14.64;100.00
33454;BME280;39400;49.744;7.012;2023-05-23T00:15:24;96017.13;;;14.62;100.00
33454;BME280;39400;49.744;7.012;2023-05-23T00:17:49;96015.13;;;14.62;100.00
33454;BME280;39400;49.744;7.012;2023-05-23T00:20:15;96020.66;;;14.62;100.00
33454;BME280;39400;49.744;7.012;2023-05-23T00:22:40;96022.31;;;14.56;100.00
33454;BME280;39400;49.744;7.012;2023-05-23T00:25:06;96027.75;;;14.63;100.00
33454;BME280;39400;49.744;7.012;2023-05-23T00:27:31;96022.59;;;14.65;100.00
33454;BME280;39400;49.744;7.012;2023-05-23T00:29:57;96017.28;;;14.74;100.00
33454;BME280;39400;49.744;7.012;2023-05-23T00:32:22;96023.03;;;14.60;100.00
33454;BME280;39400;49.744;7.012;2023-05-23T00:34:48;96016.41;;;14.54;100.00
33454;BME280;39400;49.744;7.012;2023-05-23T00:37:13;96015.84;;;14.66;100.00
33454;BME280;39400;49.744;7.012;2023-05-23T00:39:38;96022.81;;;14.47;100.00
33454;BME280;39400;49.744;7.012;2023-05-23T00:42:04;96022.28;;;14.60;100.00
33454;BME280;39400;49.744;7.012;2023-05-23T00:44:29;96017.63;;;14.53;100.00
33454;BME280;39400;49.744;7.012;2023-05-23T00:46:55;96017.84;;;14.66;100.00
33454;BME280;39400;49.744;7.012;2023-05-23T00:49:22;96017.50;;;14.60;100.00
33454;BME280;39400;49.744;7.012;2023-05-23T00:51:48;96019.06;;;14.61;100.00
33454;BME280;39400;49.744;7.012;2023-05-23T00:54:17;96019.66;;;14.76;100.00
33454;BME280;39400;49.744;7.012;2023-05-23T00:56:43;96012.66;;;14.68;100.00
33454;BME280;39400;49.744;7.012;2023-05-23T00:59:09;96010.41;;;14.59;100.00
33454;BME280;39400;49.744;7.012;2023-05-23T01:01:35;96016.69;;;14.63;100.00
33454;BME280;39400;49.744;7.012;2023-05-23T01:04:00;96023.31;;;14.69;100.00
33454;BME280;39400;49.744;7.012;2023-05-23T01:06:25;96023.94;;;14.54;100.00
33454;BME280;39400;49.744;7.012;2023-05-23T01:08:51;96019.34;;;14.70;100.00
33454;BME280;39400;49.744;7.012;2023-05-23T01:11:23;96015.50;;;14.88;100.00
33454;BME280;39400;49.744;7.012;2023-05-23T01:14:00;96024.25;;;14.86;100.00
33454;BME280;39400;49.744;7.012;2023-05-23T01:16:37;96020.00;;;14.78;100.00
33454;BME280;39400;49.744;7.012;2023-05-23T01:19:26;96018.88;;;14.76;100.00
33454;BME280;39400;49.744;7.012;2023-05-23T01:21:54;96021.59;;;14.79;100.00
33454;BME280;39400;49.744;7.012;2023-05-23T01:24:35;96018.13;;;14.71;100.00
33454;BME280;39400;49.744;7.012;2023-05-23T01:27:13;96028.47;;;14.67;100.00
33454;BME280;39400;49.744;7.012;2023-05-23T01:29:45;96015.50;;;14.88;100.00
33454;BME280;39400;49.744;7.012;2023-05-23T01:32:14;96019.81;;;14.65;100.00
33454;BME280;39400;49.744;7.012;2023-05-23T01:34:40;96024.72;;;14.54;100.00
33454;BME280;39400;49.744;7.012;2023-05-23T01:37:08;96019.34;;;14.40;100.00
33454;BME280;39400;49.744;7.012;2023-05-23T01:39:35;96026.38;;;14.48;100.00
33454;BME280;39400;49.744;7.012;2023-05-23T01:42:01;96022.59;;;14.35;100.00
33454;BME280;39400;49.744;7.012;2023-05-23T01:44:27;96025.22;;;14.45;100.00
33454;BME280;39400;49.744;7.012;2023-05-23T01:46:54;96032.19;;;14.26;100.00
33454;BME280;39400;49.744;7.012;2023-05-23T01:49:21;96033.00;;;14.23;100.00
33454;BME280;39400;49.744;7.012;2023-05-23T01:51:47;96035.44;;;14.21;100.00
33454;BME280;39400;49.744;7.012;2023-05-23T01:54:14;96032.28;;;14.19;100.00
33454;BME280;39400;49.744;7.012;2023-05-23T01:56:40;96030.63;;;14.25;100.00
33454;BME280;39400;49.744;7.012;2023-05-23T01:59:06;96024.25;;;14.28;100.00
33454;BME280;39400;49.744;7.012;2023-05-23T02:01:32;96034.50;;;14.32;100.00
33454;BME280;39400;49.744;7.012;2023-05-23T02:03:57;96029.50;;;14.19;100.00
33454;BME280;39400;49.744;7.012;2023-05-23T02:06:23;96026.75;;;14.19;100.00
33454;BME280;39400;49.744;7.012;2023-05-23T02:08:48;96039.56;;;14.06;100.00
33454;BME280;39400;49.744;7.012;2023-05-23T02:11:13;96032.50;;;14.01;100.00
33454;BME280;39400;49.744;7.012;2023-05-23T02:13:39;96045.94;;;14.03;100.00
33454;BME280;39400;49.744;7.012;2023-05-23T02:16:04;96045.34;;;13.85;100.00
33454;BME280;39400;49.744;7.012;2023-05-23T02:18:30;96043.78;;;13.84;100.00
33454;BME280;39400;49.744;7.012;2023-05-23T02:20:55;96052.19;;;13.73;100.00
33454;BME280;39400;49.744;7.012;2023-05-23T02:23:21;96052.56;;;13.75;100.00
33454;BME280;39400;49.744;7.012;2023-05-23T02:25:47;96044.72;;;13.70;100.00
33454;BME280;39400;49.744;7.012;2023-05-23T02:28:12;96050.88;;;13.85;100.00
33454;BME280;39400;49.744;7.012;2023-05-23T02:30:38;96047.97;;;13.95;100.00
33454;BME280;39400;49.744;7.012;2023-05-23T02:33:04;96044.34;;;14.02;100.00
33454;BME280;39400;49.744;7.012;2023-05-23T02:35:30;96056.81;;;14.17;100.00
33454;BME280;39400;49.744;7.012;2023-05-23T02:37:55;96054.53;;;14.09;100.00
33454;BME280;39400;49.744;7.012;2023-05-23T02:40:21;96052.47;;;13.86;100.00
33454;BME280;39400;49.744;7.012;2023-05-23T02:42:46;96056.16;;;14.06;100.00
33454;BME280;39400;49.744;7.012;2023-05-23T02:45:11;96054.38;;;13.89;100.00
33454;BME280;39400;49.744;7.012;2023-05-23T02:47:37;96052.84;;;13.84;100.00
33454;BME280;39400;49.744;7.012;2023-05-23T02:50:03;96065.94;;;13.80;100.00
33454;BME280;39400;49.744;7.012;2023-05-23T02:52:28;96063.66;;;13.71;100.00
33454;BME280;39400;49.744;7.012;2023-05-23T02:54:53;96062.00;;;13.77;100.00
33454;BME280;39400;49.744;7.012;2023-05-23T02:57:19;96061.09;;;13.88;100.00
33454;BME280;39400;49.744;7.012;2023-05-23T02:59:45;96070.44;;;14.01;100.00
33454;BME280;39400;49.744;7.012;2023-05-23T03:02:10;96068.19;;;13.89;100.00
33454;BME280;39400;49.744;7.012;2023-05-23T03:04:36;96065.19;;;13.76;100.00
33454;BME280;39400;49.744;7.012;2023-05-23T03:07:01;96065.00;;;13.94;100.00
33454;BME280;39400;49.744;7.012;2023-05-23T03:09:26;96065.81;;;13.91;100.00
33454;BME280;39400;49.744;7.012;2023-05-23T03:11:52;96061.66;;;13.75;100.00
33454;BME280;39400;49.744;7.012;2023-05-23T03:14:17;96068.81;;;13.69;100.00
33454;BME280;39400;49.744;7.012;2023-05-23T03:16:43;96062.97;;;13.60;100.00
33454;BME280;39400;49.744;7.012;2023-05-23T03:19:08;96056.25;;;13.61;100.00
33454;BME280;39400;49.744;7.012;2023-05-23T03:21:33;96059.66;;;13.76;100.00
33454;BME280;39400;49.744;7.012;2023-05-23T03:23:59;96064.47;;;13.72;100.00
33454;BME280;39400;49.744;7.012;2023-05-23T03:26:25;96055.97;;;13.52;100.00
33454;BME280;39400;49.744;7.012;2023-05-23T03:28:50;96058.25;;;13.61;100.00
33454;BME280;39400;49.744;7.012;2023-05-23T03:31:18;96055.16;;;13.55;100.00
33454;BME280;39400;49.744;7.012;2023-05-23T03:33:43;96051.28;;;13.49;100.00
33454;BME280;39400;49.744;7.012;2023-05-23T03:36:09;96063.25;;;13.35;100.00
33454;BME280;39400;49.744;7.012;2023-05-23T03:38:34;96063.97;;;13.39;100.00
33454;BME280;39400;49.744;7.012;2023-05-23T03:40:59;96067.25;;;13.30;100.00
33454;BME280;39400;49.744;7.012;2023-05-23T03:43:25;96062.13;;;13.25;100.00
33454;BME280;39400;49.744;7.012;2023-05-23T03:45:51;96060.91;;;13.34;100.00
33454;BME280;39400;49.744;7.012;2023-05-23T03:48:17;96065.56;;;13.37;100.00
33454;BME280;39400;49.744;7.012;2023-05-23T03:50:43;96069.13;;;13.41;100.00
33454;BME280;39400;49.744;7.012;2023-05-23T03:53:09;96064.97;;;13.60;100.00
33454;BME280;39400;49.744;7.012;2023-05-23T03:55:37;96061.78;;;13.61;100.00
33454;BME280;39400;49.744;7.012;2023-05-23T03:58:03;96065.69;;;13.67;100.00
33454;BME280;39400;49.744;7.012;2023-05-23T04:00:28;96064.53;;;13.61;100.00
33454;BME280;39400;49.744;7.012;2023-05-23T04:02:54;96075.78;;;13.43;100.00
33454;BME280;39400;49.744;7.012;2023-05-23T04:05:22;96064.81;;;13.36;100.00
33454;BME280;39400;49.744;7.012;2023-05-23T04:07:48;96075.25;;;13.59;100.00
33454;BME280;39400;49.744;7.012;2023-05-23T04:10:14;96087.84;;;13.60;100.00
33454;BME280;39400;49.744;7.012;2023-05-23T04:12:40;96081.91;;;13.65;100.00
33454;BME280;39400;49.744;7.012;2023-05-23T04:15:07;96085.63;;;13.48;100.00
33454;BME280;39400;49.744;7.012;2023-05-23T04:17:35;96085.09;;;13.60;100.00
33454;BME280;39400;49.744;7.012;2023-05-23T04:20:01;96094.94;;;13.61;100.00
33454;BME280;39400;49.744;7.012;2023-05-23T04:22:27;96096.22;;;13.53;100.00
33454;BME280;39400;49.744;7.012;2023-05-23T04:24:53;96090.69;;;13.53;100.00
33454;BME280;39400;49.744;7.012;2023-05-23T04:27:19;96103.38;;;13.47;100.00
33454;BME280;39400;49.744;7.012;2023-05-23T04:29:45;96093.84;;;13.55;100.00
33454;BME280;39400;49.744;7.012;2023-05-23T04:32:10;96102.47;;;13.57;100.00
33454;BME280;39400;49.744;7.012;2023-05-23T04:34:36;96097.69;;;13.61;100.00
33454;BME280;39400;49.744;7.012;2023-05-23T04:37:03;96103.44;;;13.40;100.00
33454;BME280;39400;49.744;7.012;2023-05-23T04:39:29;96101.81;;;13.46;100.00
33454;BME280;39400;49.744;7.012;2023-05-23T04:42:14;96108.28;;;13.70;100.00
33454;BME280;39400;49.744;7.012;2023-05-23T04:44:54;96104.75;;;13.69;100.00
33454;BME280;39400;49.744;7.012;2023-05-23T04:47:27;96111.56;;;13.57;100.00
33454;BME280;39400;49.744;7.012;2023-05-23T04:49:57;96114.00;;;13.52;100.00
33454;BME280;39400;49.744;7.012;2023-05-23T04:52:23;96124.38;;;13.82;100.00
33454;BME280;39400;49.744;7.012;2023-05-23T04:54:48;96116.69;;;13.59;100.00
33454;BME280;39400;49.744;7.012;2023-05-23T04:57:14;96118.09;;;13.74;100.00
33454;BME280;39400;49.744;7.012;2023-05-23T04:59:39;96126.81;;;13.73;100.00
33454;BME280;39400;49.744;7.012;2023-05-23T05:02:05;96125.34;;;13.61;100.00
33454;BME280;39400;49.744;7.012;2023-05-23T05:04:31;96121.47;;;13.55;100.00
33454;BME280;39400;49.744;7.012;2023-05-23T05:06:56;96120.31;;;13.49;100.00
33454;BME280;39400;49.744;7.012;2023-05-23T05:09:22;96120.19;;;13.63;100.00
33454;BME280;39400;49.744;7.012;2023-05-23T05:11:49;96118.63;;;13.62;100.00
33454;BME280;39400;49.744;7.012;2023-05-23T05:14:14;96124.50;;;13.64;100.00
33454;BME280;39400;49.744;7.012;2023-05-23T05:16:40;96133.03;;;13.80;100.00
33454;BME280;39400;49.744;7.012;2023-05-23T05:19:05;96127.00;;;13.55;100.00
33454;BME280;39400;49.744;7.012;2023-05-23T05:21:31;96130.63;;;13.45;100.00
33454;BME280;39400;49.744;7.012;2023-05-23T05:23:56;96130.09;;;13.57;100.00
33454;BME280;39400;49.744;7.012;2023-05-23T05:26:22;96129.25;;;13.64;100.00
33454;BME280;39400;49.744;7.012;2023-05-23T05:28:48;96129.31;;;13.56;100.00
33454;BME280;39400;49.744;7.012;2023-05-23T05:31:14;96133.22;;;13.63;100.00
33454;BME280;39400;49.744;7.012;2023-05-23T05:33:40;96134.16;;;13.45;100.00
33454;BME280;39400;49.744;7.012;2023-05-23T05:36:09;96147.19;;;13.45;100.00
33454;BME280;39400;49.744;7.012;2023-05-23T05:38:34;96139.69;;;13.45;100.00
33454;BME280;39400;49.744;7.012;2023-05-23T05:41:00;96142.06;;;13.43;100.00
33454;BME280;39400;49.744;7.012;2023-05-23T05:43:29;96152.44;;;13.28;100.00
33454;BME280;39400;49.744;7.012;2023-05-23T05:45:55;96157.94;;;13.32;100.00
33454;BME280;39400;49.744;7.012;2023-05-23T05:48:21;96162.31;;;13.29;100.00
33454;BME280;39400;49.744;7.012;2023-05-23T05:50:48;96159.47;;;13.37;100.00
33454;BME280;39400;49.744;7.012;2023-05-23T05:53:13;96137.38;;;13.37;100.00
33454;BME280;39400;49.744;7.012;2023-05-23T05:55:39;96158.31;;;13.38;100.00
33454;BME280;39400;49.744;7.012;2023-05-23T05:58:04;96167.41;;;13.35;100.00
33454;BME280;39400;49.744;7.012;2023-05-23T06:00:42;96168.16;;;13.39;100.00
33454;BME280;39400;49.744;7.012;2023-05-23T06:03:08;96173.78;;;13.21;100.00
33454;BME280;39400;49.744;7.012;2023-05-23T06:05:43;96178.59;;;13.13;100.00
33454;BME280;39400;49.744;7.012;2023-05-23T06:08:10;96187.97;;;13.23;100.00
33454;BME280;39400;49.744;7.012;2023-05-23T06:10:37;96181.75;;;13.08;100.00
33454;BME280;39400;49.744;7.012;2023-05-23T06:13:02;96184.66;;;12.83;100.00
33454;BME280;39400;49.744;7.012;2023-05-23T06:15:29;96180.25;;;13.00;100.00
33454;BME280;39400;49.744;7.012;2023-05-23T06:17:55;96188.03;;;13.12;100.00
33454;BME280;39400;49.744;7.012;2023-05-23T06:20:20;96187.91;;;12.60;100.00
33454;BME280;39400;49.744;7.012;2023-05-23T06:22:46;96184.69;;;12.79;100.00
33454;BME280;39400;49.744;7.012;2023-05-23T06:25:12;96189.00;;;12.80;100.00
33454;BME280;39400;49.744;7.012;2023-05-23T06:27:37;96185.38;;;12.98;100.00
33454;BME280;39400;49.744;7.012;2023-05-23T06:30:03;96177.16;;;12.87;100.00
33454;BME280;39400;49.744;7.012;2023-05-23T06:32:29;96183.28;;;13.20;100.00
33454;BME280;39400;49.744;7.012;2023-05-23T06:34:56;96183.75;;;13.04;100.00
33454;BME280;39400;49.744;7.012;2023-05-23T06:37:21;96181.03;;;12.97;100.00
33454;BME280;39400;49.744;7.012;2023-05-23T06:39:47;96183.13;;;12.78;100.00
33454;BME280;39400;49.744;7.012;2023-05-23T06:42:13;96188.25;;;12.76;100.00
33454;BME280;39400;49.744;7.012;2023-05-23T06:44:55;96192.91;;;12.90;100.00
33454;BME280;39400;49.744;7.012;2023-05-23T06:47:20;96191.28;;;13.00;100.00
33454;BME280;39400;49.744;7.012;2023-05-23T06:49:46;96192.44;;;13.06;100.00
33454;BME280;39400;49.744;7.012;2023-05-23T06:52:11;96189.19;;;13.18;100.00
33454;BME280;39400;49.744;7.012;2023-05-23T06:54:36;96184.16;;;12.99;100.00
33454;BME280;39400;49.744;7.012;2023-05-23T06:57:02;96196.34;;;13.05;100.00
33454;BME280;39400;49.744;7.012;2023-05-23T06:59:27;96191.94;;;13.18;100.00
33454;BME280;39400;49.744;7.012;2023-05-23T07:01:53;96177.78;;;13.09;100.00
33454;BME280;39400;49.744;7.012;2023-05-23T07:04:19;96186.88;;;13.13;100.00
33454;BME280;39400;49.744;7.012;2023-05-23T07:06:44;96196.00;;;13.03;100.00
33454;BME280;39400;49.744;7.012;2023-05-23T07:09:10;96190.06;;;13.04;100.00
33454;BME280;39400;49.744;7.012;2023-05-23T07:11:36;96192.81;;;13.04;100.00
33454;BME280;39400;49.744;7.012;2023-05-23T07:14:03;96193.31;;;12.89;100.00
33454;BME280;39400;49.744;7.012;2023-05-23T07:16:38;96196.78;;;13.00;100.00
33454;BME280;39400;49.744;7.012;2023-05-23T07:19:05;96189.91;;;13.29;100.00
33454;BME280;39400;49.744;7.012;2023-05-23T07:21:34;96193.47;;;13.34;100.00
33454;BME280;39400;49.744;7.012;2023-05-23T07:24:00;96188.69;;;13.38;100.00
33454;BME280;39400;49.744;7.012;2023-05-23T07:26:26;96176.78;;;13.48;100.00
33454;BME280;39400;49.744;7.012;2023-05-23T07:28:54;96187.63;;;13.69;100.00
33454;BME280;39400;49.744;7.012;2023-05-23T07:31:20;96185.13;;;13.86;100.00
33454;BME280;39400;49.744;7.012;2023-05-23T07:33:46;96173.84;;;14.07;100.00
33454;BME280;39400;49.744;7.012;2023-05-23T07:36:18;96189.56;;;14.17;100.00
33454;BME280;39400;49.744;7.012;2023-05-23T07:38:44;96179.94;;;14.29;100.00
33454;BME280;39400;49.744;7.012;2023-05-23T07:41:09;96184.81;;;14.18;100.00
33454;BME280;39400;49.744;7.012;2023-05-23T07:43:35;96168.94;;;14.22;100.00
33454;BME280;39400;49.744;7.012;2023-05-23T07:46:00;96167.31;;;14.28;100.00
33454;BME280;39400;49.744;7.012;2023-05-23T07:48:25;96173.63;;;14.28;100.00
33454;BME280;39400;49.744;7.012;2023-05-23T07:50:51;96170.31;;;14.41;100.00
33454;BME280;39400;49.744;7.012;2023-05-23T07:53:16;96170.81;;;14.66;100.00
33454;BME280;39400;49.744;7.012;2023-05-23T07:55:42;96175.63;;;14.93;100.00
33454;BME280;39400;49.744;7.012;2023-05-23T07:58:08;96179.03;;;15.04;100.00
33454;BME280;39400;49.744;7.012;2023-05-23T08:00:34;96168.78;;;15.01;100.00
33454;BME280;39400;49.744;7.012;2023-05-23T08:03:08;96180.97;;;14.77;100.00
33454;BME280;39400;49.744;7.012;2023-05-23T08:05:41;96173.78;;;14.83;100.00
33454;BME280;39400;49.744;7.012;2023-05-23T08:08:13;96183.38;;;14.74;100.00
33454;BME280;39400;49.744;7.012;2023-05-23T08:10:39;96185.78;;;14.72;100.00
33454;BME280;39400;49.744;7.012;2023-05-23T08:13:09;96180.34;;;14.65;100.00
33454;BME280;39400;49.744;7.012;2023-05-23T08:15:40;96183.38;;;14.74;100.00
33454;BME280;39400;49.744;7.012;2023-05-23T08:18:13;96186.38;;;14.87;100.00
33454;BME280;39400;49.744;7.012;2023-05-23T08:20:38;96189.91;;;14.88;100.00
33454;BME280;39400;49.744;7.012;2023-05-23T08:23:03;96186.22;;;14.98;100.00
33454;BME280;39400;49.744;7.012;2023-05-23T08:25:29;96198.19;;;14.91;100.00
33454;BME280;39400;49.744;7.012;2023-05-23T08:27:59;96198.81;;;15.03;100.00
33454;BME280;39400;49.744;7.012;2023-05-23T08:30:39;96207.09;;;14.76;100.00
33454;BME280;39400;49.744;7.012;2023-05-23T08:33:05;96201.91;;;14.78;100.00
33454;BME280;39400;49.744;7.012;2023-05-23T08:35:31;96205.59;;;14.98;100.00
33454;BME280;39400;49.744;7.012;2023-05-23T08:37:56;96209.84;;;15.06;100.00
33454;BME280;39400;49.744;7.012;2023-05-23T08:40:23;96205.19;;;15.54;100.00
33454;BME280;39400;49.744;7.012;2023-05-23T08:43:09;96199.75;;;15.19;100.00
33454;BME280;39400;49.744;7.012;2023-05-23T08:45:34;96203.91;;;15.35;100.00
33454;BME280;39400;49.744;7.012;2023-05-23T08:48:00;96196.22;;;15.19;100.00
33454;BME280;39400;49.744;7.012;2023-05-23T08:50:27;96209.09;;;15.02;100.00
33454;BME280;39400;49.744;7.012;2023-05-23T08:52:56;96213.09;;;15.01;100.00
33454;BME280;39400;49.744;7.012;2023-05-23T08:55:24;96205.38;;;14.85;100.00
33454;BME280;39400;49.744;7.012;2023-05-23T08:57:50;96219.03;;;14.99;100.00
33454;BME280;39400;49.744;7.012;2023-05-23T09:00:26;96217.50;;;14.95;100.00
33454;BME280;39400;49.744;7.012;2023-05-23T09:02:52;96224.44;;;14.80;100.00
33454;BME280;39400;49.744;7.012;2023-05-23T09:05:38;96226.31;;;14.56;100.00
33454;BME280;39400;49.744;7.012;2023-05-23T09:08:03;96229.50;;;14.50;100.00
33454;BME280;39400;49.744;7.012;2023-05-23T09:10:30;96232.16;;;14.61;100.00
33454;BME280;39400;49.744;7.012;2023-05-23T09:12:56;96240.22;;;14.45;100.00
33454;BME280;39400;49.744;7.012;2023-05-23T09:15:22;96231.41;;;14.57;100.00
33454;BME280;39400;49.744;7.012;2023-05-23T09:17:48;96241.31;;;14.55;100.00
33454;BME280;39400;49.744;7.012;2023-05-23T09:20:15;96249.63;;;14.58;100.00
33454;BME280;39400;49.744;7.012;2023-05-23T09:22:47;96245.00;;;14.79;100.00
33454;BME280;39400;49.744;7.012;2023-05-23T09:25:14;96238.94;;;14.57;100.00
33454;BME280;39400;49.744;7.012;2023-05-23T09:27:42;96257.72;;;14.35;100.00
33454;BME280;39400;49.744;7.012;2023-05-23T09:30:11;96249.72;;;14.02;100.00
33454;BME280;39400;49.744;7.012;2023-05-23T09:32:37;96261.69;;;13.89;100.00
33454;BME280;39400;49.744;7.012;2023-05-23T09:35:05;96260.84;;;13.95;100.00
33454;BME280;39400;49.744;7.012;2023-05-23T09:37:33;96262.69;;;14.09;100.00
33454;BME280;39400;49.744;7.012;2023-05-23T09:40:09;96260.09;;;14.33;100.00
33454;BME280;39400;49.744;7.012;2023-05-23T09:42:35;96267.59;;;14.36;100.00
33454;BME280;39400;49.744;7.012;2023-05-23T09:45:05;96266.53;;;14.22;100.00
33454;BME280;39400;49.744;7.012;2023-05-23T09:47:31;96273.16;;;14.32;100.00
33454;BME280;39400;49.744;7.012;2023-05-23T09:49:56;96271.06;;;14.02;100.00
33454;BME280;39400;49.744;7.012;2023-05-23T09:52:22;96263.06;;;14.15;100.00
33454;BME280;39400;49.744;7.012;2023-05-23T09:54:47;96271.50;;;13.97;100.00
33454;BME280;39400;49.744;7.012;2023-05-23T09:57:14;96255.03;;;14.27;100.00
33454;BME280;39400;49.744;7.012;2023-05-23T09:59:41;96262.41;;;14.79;100.00
33454;BME280;39400;49.744;7.012;2023-05-23T10:02:11;96255.84;;;15.00;100.00
33454;BME280;39400;49.744;7.012;2023-05-23T10:04:38;96252.22;;;15.03;100.00
33454;BME280;39400;49.744;7.012;2023-05-23T10:07:09;96264.25;;;15.20;100.00
33454;BME280;39400;49.744;7.012;2023-05-23T10:09:38;96257.41;;;15.01;100.00
33454;BME280;39400;49.744;7.012;2023-05-23T10:15:01;96273.16;;;14.73;100.00
33454;BME280;39400;49.744;7.012;2023-05-23T10:18:11;96271.25;;;14.67;100.00
33454;BME280;39400;49.744;7.012;2023-05-23T10:20:42;96276.94;;;14.49;100.00
33454;BME280;39400;49.744;7.012;2023-05-23T10:23:12;96267.59;;;14.36;100.00
33454;BME280;39400;49.744;7.012;2023-05-23T10:25:37;96267.94;;;14.41;100.00
33454;BME280;39400;49.744;7.012;2023-05-23T10:28:03;96274.56;;;14.51;100.00
33454;BME280;39400;49.744;7.012;2023-05-23T10:30:29;96275.19;;;14.69;100.00
33454;BME280;39400;49.744;7.012;2023-05-23T10:32:55;96275.63;;;14.98;100.00
33454;BME280;39400;49.744;7.012;2023-05-23T10:35:59;96274.44;;;14.65;100.00
33454;BME280;39400;49.744;7.012;2023-05-23T10:41:12;96280.91;;;14.52;100.00
33454;BME280;39400;49.744;7.012;2023-05-23T10:46:20;96281.75;;;14.83;100.00
33454;BME280;39400;49.744;7.012;2023-05-23T10:48:46;96276.22;;;15.13;100.00
33454;BME280;39400;49.744;7.012;2023-05-23T10:51:13;96277.13;;;15.03;100.00
33454;BME280;39400;49.744;7.012;2023-05-23T10:53:41;96281.06;;;15.36;100.00
33454;BME280;39400;49.744;7.012;2023-05-23T10:56:07;96275.22;;;15.85;100.00
33454;BME280;39400;49.744;7.012;2023-05-23T10:58:35;96274.97;;;15.76;100.00
33454;BME280;39400;49.744;7.012;2023-05-23T11:05:58;96280.97;;;15.43;100.00
33454;BME280;39400;49.744;7.012;2023-05-23T11:08:24;96278.88;;;15.51;100.00
33454;BME280;39400;49.744;7.012;2023-05-23T11:11:00;96277.00;;;15.72;100.00
33454;BME280;39400;49.744;7.012;2023-05-23T11:16:43;96271.94;;;15.93;100.00
33454;BME280;39400;49.744;7.012;2023-05-23T11:24:48;96284.91;;;15.15;100.00
33454;BME280;39400;49.744;7.012;2023-05-23T11:27:14;96279.38;;;15.15;100.00
33454;BME280;39400;49.744;7.012;2023-05-23T11:29:40;96282.31;;;15.32;100.00
33454;BME280;39400;49.744;7.012;2023-05-23T11:32:09;96285.50;;;15.30;100.00
33454;BME280;39400;49.744;7.012;2023-05-23T11:34:37;96280.56;;;15.45;100.00
33454;BME280;39400;49.744;7.012;2023-05-23T11:37:03;96285.53;;;15.27;100.00
33454;BME280;39400;49.744;7.012;2023-05-23T11:39:28;96290.25;;;15.30;100.00
33454;BME280;39400;49.744;7.012;2023-05-23T11:42:01;96283.84;;;15.36;100.00
33454;BME280;39400;49.744;7.012;2023-05-23T11:44:26;96288.34;;;15.54;100.00
33454;BME280;39400;49.744;7.012;2023-05-23T11:49:24;96290.31;;;15.53;100.00
33454;BME280;39400;49.744;7.012;2023-05-23T11:51:49;96293.66;;;15.72;100.00
33454;BME280;39400;49.744;7.012;2023-05-23T11:54:15;96294.38;;;15.76;100.00
33454;BME280;39400;49.744;7.012;2023-05-23T11:56:40;96291.59;;;15.49;100.00
33454;BME280;39400;49.744;7.012;2023-05-23T11:59:06;96299.56;;;15.43;100.00
33454;BME280;39400;49.744;7.012;2023-05-23T12:01:31;96296.53;;;15.34;100.00
33454;BME280;39400;49.744;7.012;2023-05-23T12:03:56;96291.56;;;15.21;100.00
33454;BME280;39400;49.744;7.012;2023-05-23T12:06:23;96289.56;;;15.22;100.00
33454;BME280;39400;49.744;7.012;2023-05-23T12:08:50;96284.34;;;15.28;100.00
33454;BME280;39400;49.744;7.012;2023-05-23T12:11:16;96294.22;;;15.29;100.00
33454;BME280;39400;49.744;7.012;2023-05-23T12:13:42;96294.28;;;15.25;100.00
33454;BME280;39400;49.744;7.012;2023-05-23T12:16:07;96299.19;;;15.72;100.00
33454;BME280;39400;49.744;7.012;2023-05-23T12:18:33;96296.25;;;15.55;100.00
33454;BME280;39400;49.744;7.012;2023-05-23T12:20:59;96297.09;;;15.52;100.00
33454;BME280;39400;49.744;7.012;2023-05-23T12:23:27;96296.63;;;15.27;100.00
33454;BME280;39400;49.744;7.012;2023-05-23T12:25:53;96291.47;;;15.29;100.00
33454;BME280;39400;49.744;7.012;2023-05-23T12:28:20;96292.28;;;15.26;99.95
33454;BME280;39400;49.744;7.012;2023-05-23T12:30:46;96292.28;;;15.26;100.00
33454;BME280;39400;49.744;7.012;2023-05-23T12:33:11;96295.34;;;15.35;100.00
33454;BME280;39400;49.744;7.012;2023-05-23T12:35:41;96293.41;;;15.32;100.00
33454;BME280;39400;49.744;7.012;2023-05-23T12:38:06;96302.34;;;15.43;100.00
33454;BME280;39400;49.744;7.012;2023-05-23T12:40:32;96305.84;;;15.47;100.00
33454;BME280;39400;49.744;7.012;2023-05-23T12:42:57;96299.78;;;15.29;99.92
33454;BME280;39400;49.744;7.012;2023-05-23T12:45:33;96303.91;;;15.13;100.00
33454;BME280;39400;49.744;7.012;2023-05-23T12:48:00;96300.25;;;15.20;100.00
33454;BME280;39400;49.744;7.012;2023-05-23T12:50:25;96297.19;;;15.45;100.00
33454;BME280;39400;49.744;7.012;2023-05-23T12:52:50;96297.09;;;15.52;100.00
33454;BME280;39400;49.744;7.012;2023-05-23T12:55:16;96300.53;;;15.60;100.00
33454;BME280;39400;49.744;7.012;2023-05-23T12:57:41;96309.66;;;15.30;100.00
33454;BME280;39400;49.744;7.012;2023-05-23T13:00:07;96295.38;;;15.31;100.00
33454;BME280;39400;49.744;7.012;2023-05-23T13:02:32;96299.53;;;15.46;100.00
33454;BME280;39400;49.744;7.012;2023-05-23T13:04:58;96306.84;;;14.99;100.00
33454;BME280;39400;49.744;7.012;2023-05-23T13:07:23;96300.47;;;14.68;100.00
33454;BME280;39400;49.744;7.012;2023-05-23T13:09:48;96310.78;;;15.02;100.00
33454;BME280;39400;49.744;7.012;2023-05-23T13:12:14;96302.78;;;14.77;100.00
33454;BME280;39400;49.744;7.012;2023-05-23T13:14:40;96308.31;;;14.77;100.00